sensor_id;sensor_type;location;lat;lon;timestamp;pressure;altitude;pressure_sealevel;temperature;humidity
29379;BME280;16362;47.202;15.258;2023-07-16T09:09:55;96128.00;;;31.95;51.84
29379;BME280;16362;47.202;15.258;2023-07-16T09:14:03;96121.97;;;32.47;49.18
29379;BME280;16362;47.202;15.258;2023-07-16T09:21:21;96124.22;;;31.82;50.96
29379;BME280;16362;47.202;15.258;2023-07-16T09:25:03;96128.31;;;31.25;49.75
29379;BME280;16362;47.202;15.258;2023-07-16T09:28:19;96130.84;;;30.85;53.12
29379;BME280;16362;47.202;15.258;2023-07-16T09:32:05;96127.13;;;30.53;59.65
29379;BME280;16362;47.202;15.258;2023-07-16T09:35:43;96124.72;;;30.88;53.08
29379;BME280;16362;47.202;15.258;2023-07-16T09:38:51;96143.19;;;30.87;63.76
29379;BME280;16362;47.202;15.258;2023-07-16T09:42:00;96141.91;;;30.57;64.12
29379;BME280;16362;47.202;15.258;2023-07-16T09:44:49;96138.59;;;30.41;64.32
29379;BME280;16362;47.202;15.258;2023-07-16T09:47:49;96134.47;;;30.11;69.27
29379;BME280;16362;47.202;15.258;2023-07-16T09:50:53;96144.03;;;29.85;60.32
29379;BME280;16362;47.202;15.258;2023-07-16T09:54:27;96140.53;;;29.80;54.90
29379;BME280;16362;47.202;15.258;2023-07-16T09:57:42;96134.19;;;29.79;68.60
29379;BME280;16362;47.202;15.258;2023-07-16T10:01:18;96139.25;;;29.91;68.98
29379;BME280;16362;47.202;15.258;2023-07-16T10:04:16;96130.84;;;30.29;61.66
29379;BME280;16362;47.202;15.258;2023-07-16T10:07:20;96134.59;;;30.89;60.89
29379;BME280;16362;47.202;15.258;2023-07-16T10:10:40;96136.22;;;31.04;59.29
29379;BME280;16362;47.202;15.258;2023-07-16T10:13:13;96130.44;;;31.05;55.76
29379;BME280;16362;47.202;15.258;2023-07-16T10:15:56;96127.31;;;31.21;54.58
29379;BME280;16362;47.202;15.258;2023-07-16T10:18:54;96135.09;;;31.41;52.33
29379;BME280;16362;47.202;15.258;2023-07-16T10:21:24;96132.03;;;31.43;49.04
29379;BME280;16362;47.202;15.258;2023-07-16T10:24:00;96138.84;;;31.46;49.02
29379;BME280;16362;47.202;15.258;2023-07-16T10:26:28;96138.75;;;31.51;49.63
29379;BME280;16362;47.202;15.258;2023-07-16T10:28:57;96137.25;;;31.45;49.91
29379;BME280;16362;47.202;15.258;2023-07-16T10:31:33;96135.19;;;31.73;50.85
29379;BME280;16362;47.202;15.258;2023-07-16T10:34:04;96133.16;;;31.87;51.73
29379;BME280;16362;47.202;15.258;2023-07-16T10:36:39;96131.22;;;31.88;50.85
29379;BME280;16362;47.202;15.258;2023-07-16T10:39:07;96130.31;;;31.70;47.54
29379;BME280;16362;47.202;15.258;2023-07-16T10:41:34;96133.88;;;31.48;59.78
29379;BME280;16362;47.202;15.258;2023-07-16T10:44:01;96130.09;;;31.44;47.94
29379;BME280;16362;47.202;15.258;2023-07-16T10:46:28;96132.88;;;31.07;50.35
29379;BME280;16362;47.202;15.258;2023-07-16T10:48:57;96129.72;;;30.86;54.10
29379;BME280;16362;47.202;15.258;2023-07-16T10:51:28;96124.13;;;30.77;55.36
29379;BME280;16362;47.202;15.258;2023-07-16T10:53:57;96132.78;;;30.84;48.51
29379;BME280;16362;47.202;15.258;2023-07-16T10:56:34;96130.19;;;31.02;51.88
29379;BME280;16362;47.202;15.258;2023-07-16T10:59:10;96129.31;;;31.29;52.04
29379;BME280;16362;47.202;15.258;2023-07-16T11:01:38;96132.19;;;31.24;50.25
29379;BME280;16362;47.202;15.258;2023-07-16T11:04:10;96129.28;;;31.20;51.31
29379;BME280;16362;47.202;15.258;2023-07-16T11:06:39;96127.97;;;31.04;47.41
29379;BME280;16362;47.202;15.258;2023-07-16T11:09:11;96132.97;;;31.02;51.03
29379;BME280;16362;47.202;15.258;2023-07-16T11:11:45;96137.56;;;31.06;52.11
29379;BME280;16362;47.202;15.258;2023-07-16T11:14:21;96129.97;;;31.26;51.84
29379;BME280;16362;47.202;15.258;2023-07-16T11:16:52;96132.84;;;31.44;51.37
29379;BME280;16362;47.202;15.258;2023-07-16T11:19:22;96127.66;;;31.42;50.53
29379;BME280;16362;47.202;15.258;2023-07-16T11:21:56;96141.47;;;31.65;48.64
29379;BME280;16362;47.202;15.258;2023-07-16T11:24:45;96137.56;;;31.66;51.93
29379;BME280;16362;47.202;15.258;2023-07-16T11:28:12;96131.09;;;31.93;48.63
29379;BME280;16362;47.202;15.258;2023-07-16T11:30:51;96134.06;;;32.05;53.32
29379;BME280;16362;47.202;15.258;2023-07-16T11:33:35;96133.94;;;32.11;50.43
29379;BME280;16362;47.202;15.258;2023-07-16T11:36:31;96128.00;;;31.95;54.07
